Colcord, West Virginia
Current Conditions -  °F | °C
As of 2:51 AM on Monday 26 Jan 2015 (Local Time) from KBKW Reporting Station
Light Rain Light Rain  
Wind Chill:   Ceiling: 4800
Heat Index:   Visibility: 10mi
Dew Point: -1°   Wind: 6mph
Humidity: 73%   Direction: 120°ESE
Pressure: 29.61"   Gusts: NA
Location:  37.95°N, 81.44°W
Report Text: KBKW 260751Z AUTO 12005KT 10SM -RA FEW041 OVC048 04/M01 A2961 RMK AO2 SLP037 P0001 T00391006
Loading
Personal Weather Stations






























Interactive Weather Map New forecast layout! Learn more

10-Day Weather Forecast

Advertisements
Track Severe Weather on mobile